createdAt,value
2024-03-11T00:00:20.122Z,5.72
2024-03-11T00:03:07.874Z,6.55
2024-03-11T00:05:37.769Z,6.60
2024-03-11T00:08:06.557Z,6.45
2024-03-11T00:10:33.960Z,6.30
2024-03-11T00:13:03.115Z,5.45
2024-03-11T00:15:32.328Z,7.53
2024-03-11T00:18:00.034Z,5.97
2024-03-11T00:20:27.432Z,5.55
2024-03-11T00:22:55.121Z,5.88
2024-03-11T00:25:22.355Z,5.53
2024-03-11T00:27:51.916Z,5.75
2024-03-11T00:30:20.538Z,5.93
2024-03-11T00:32:50.174Z,5.70
2024-03-11T00:35:17.793Z,5.90
2024-03-11T00:37:46.283Z,5.40
2024-03-11T00:40:14.041Z,6.30
2024-03-11T00:42:41.656Z,6.60
2024-03-11T00:45:10.242Z,6.03
2024-03-11T00:47:39.715Z,6.63
2024-03-11T00:50:08.479Z,6.63
2024-03-11T00:52:36.223Z,5.75
2024-03-11T00:55:06.043Z,6.60
2024-03-11T00:57:34.088Z,6.72
2024-03-11T01:00:01.317Z,6.68
2024-03-11T01:02:29.050Z,6.85
2024-03-11T01:04:57.800Z,7.30
2024-03-11T01:07:35.126Z,6.20
2024-03-11T01:10:14.325Z,7.18
2024-03-11T01:12:42.122Z,6.95
2024-03-11T01:15:09.931Z,5.35
2024-03-11T01:17:40.143Z,7.38
2024-03-11T01:20:12.519Z,6.45
2024-03-11T01:22:40.962Z,7.07
2024-03-11T01:25:11.974Z,7.40
2024-03-11T01:27:40.278Z,7.53
2024-03-11T01:30:09.202Z,6.60
2024-03-11T01:32:37.914Z,7.65
2024-03-11T01:35:05.601Z,6.78
2024-03-11T01:37:34.769Z,8.10
2024-03-11T01:40:02.222Z,7.47
2024-03-11T01:42:29.880Z,7.13
2024-03-11T01:44:57.318Z,7.65
2024-03-11T01:47:26.638Z,7.22
2024-03-11T01:49:55.761Z,7.32
2024-03-11T01:52:27.354Z,7.05
2024-03-11T01:54:57.328Z,7.15
2024-03-11T01:57:26.251Z,6.40
2024-03-11T01:59:58.605Z,6.93
2024-03-11T02:02:26.475Z,7.85
2024-03-11T02:04:54.396Z,7.43
2024-03-11T02:07:23.582Z,6.57
2024-03-11T02:09:51.033Z,7.03
2024-03-11T02:12:23.792Z,6.65
2024-03-11T02:17:19.007Z,8.20
2024-03-11T02:19:48.777Z,7.70
2024-03-11T02:22:21.411Z,7.63
2024-03-11T02:24:53.965Z,7.65
2024-03-11T02:27:21.670Z,7.60
2024-03-11T02:29:49.023Z,9.52
2024-03-11T02:32:16.745Z,8.02
2024-03-11T02:34:44.069Z,8.40
2024-03-11T02:37:11.637Z,7.43
2024-03-11T02:39:39.092Z,8.75
2024-03-11T02:42:08.028Z,8.20
2024-03-11T02:44:38.220Z,8.77
2024-03-11T02:47:06.256Z,9.48
2024-03-11T02:49:33.521Z,8.02
2024-03-11T02:52:01.187Z,9.55
2024-03-11T02:54:28.521Z,8.35
2024-03-11T02:57:00.432Z,10.07
2024-03-11T02:59:29.129Z,9.75
2024-03-11T03:01:58.926Z,9.90
2024-03-11T03:04:26.114Z,10.27
2024-03-11T03:06:53.886Z,10.30
2024-03-11T03:09:21.069Z,9.73
2024-03-11T03:11:51.815Z,10.63
2024-03-11T03:14:19.390Z,11.00
2024-03-11T03:16:52.122Z,8.57
2024-03-11T03:21:49.698Z,10.15
2024-03-11T03:24:17.190Z,10.00
2024-03-11T03:26:46.713Z,9.43
2024-03-11T03:29:15.771Z,9.77
2024-03-11T03:31:43.332Z,9.75
2024-03-11T03:34:11.969Z,10.85
2024-03-11T03:36:39.818Z,10.32
2024-03-11T03:39:09.576Z,10.70
2024-03-11T03:41:37.436Z,12.05
2024-03-11T03:44:05.271Z,10.75
2024-03-11T03:46:33.157Z,10.95
2024-03-11T03:49:00.503Z,11.20
2024-03-11T03:51:32.902Z,10.20
2024-03-11T03:54:00.444Z,10.32
2024-03-11T03:56:28.290Z,10.20
2024-03-11T03:58:55.741Z,11.20
2024-03-11T04:01:23.687Z,9.18
2024-03-11T04:03:51.269Z,10.30
2024-03-11T04:06:18.946Z,10.93
2024-03-11T04:08:47.988Z,9.95
2024-03-11T04:11:15.834Z,11.07
2024-03-11T04:13:43.111Z,11.23
2024-03-11T04:16:13.577Z,11.70
2024-03-11T04:18:40.869Z,11.93
2024-03-11T04:21:08.534Z,11.35
2024-03-11T04:23:35.954Z,11.88
2024-03-11T04:26:05.346Z,11.02
2024-03-11T04:28:32.713Z,11.07
2024-03-11T04:31:00.344Z,11.82
2024-03-11T04:33:27.747Z,11.43
2024-03-11T04:35:55.449Z,10.68
2024-03-11T04:38:22.860Z,11.88
2024-03-11T04:40:50.667Z,12.02
2024-03-11T04:43:19.424Z,10.55
2024-03-11T04:45:47.137Z,10.20
2024-03-11T04:48:14.522Z,12.02
2024-03-11T04:50:44.232Z,11.25
2024-03-11T04:53:14.631Z,9.77
2024-03-11T04:55:42.450Z,11.57
2024-03-11T04:58:10.487Z,10.68
2024-03-11T05:00:44.458Z,10.48
2024-03-11T05:03:11.789Z,11.07
2024-03-11T05:05:39.665Z,12.25
2024-03-11T05:08:08.099Z,11.27
2024-03-11T05:10:36.028Z,10.35
2024-03-11T05:13:03.454Z,10.50
2024-03-11T05:15:31.033Z,11.30
2024-03-11T05:17:59.901Z,8.63
2024-03-11T05:20:27.666Z,11.05
2024-03-11T05:22:55.085Z,11.30
2024-03-11T05:25:22.828Z,10.60
2024-03-11T05:27:50.204Z,11.15
2024-03-11T05:30:22.477Z,11.65
2024-03-11T05:32:50.100Z,10.48
2024-03-11T05:35:25.732Z,10.00
2024-03-11T05:37:53.411Z,10.80
2024-03-11T05:40:25.445Z,11.40
2024-03-11T05:42:52.817Z,11.40
2024-03-11T05:45:26.046Z,11.32
2024-03-11T05:47:55.156Z,11.88
2024-03-11T05:50:25.164Z,11.80
2024-03-11T05:52:52.680Z,11.07
2024-03-11T05:55:20.451Z,11.73
2024-03-11T05:57:47.902Z,10.90
2024-03-11T06:00:16.121Z,11.05
2024-03-11T06:02:47.380Z,11.38
2024-03-11T06:05:15.572Z,10.43
2024-03-11T06:07:44.377Z,11.63
2024-03-11T06:10:12.312Z,10.05
2024-03-11T06:12:39.630Z,11.20
2024-03-11T06:15:15.054Z,10.23
2024-03-11T06:17:42.880Z,9.75
2024-03-11T06:20:11.959Z,10.35
2024-03-11T06:22:39.312Z,10.55
2024-03-11T06:25:09.087Z,9.45
2024-03-11T06:27:39.349Z,9.48
2024-03-11T06:30:10.329Z,9.95
2024-03-11T06:32:37.642Z,9.15
2024-03-11T06:35:06.026Z,9.00
2024-03-11T06:37:33.469Z,9.20
2024-03-11T06:40:01.268Z,6.88
2024-03-11T06:42:30.191Z,8.55
2024-03-11T06:44:58.005Z,7.55
2024-03-11T06:47:28.154Z,8.70
2024-03-11T06:49:55.742Z,8.20
2024-03-11T06:52:23.328Z,8.55
2024-03-11T06:54:51.221Z,8.23
2024-03-11T06:57:18.784Z,8.70
2024-03-11T06:59:51.991Z,9.50
2024-03-11T07:02:19.417Z,8.15
2024-03-11T07:04:47.618Z,8.57
2024-03-11T07:07:15.363Z,9.05
2024-03-11T07:09:43.359Z,9.15
2024-03-11T07:12:10.984Z,7.65
2024-03-11T07:14:38.999Z,9.00
2024-03-11T07:17:12.200Z,8.60
2024-03-11T07:19:40.615Z,9.25
2024-03-11T07:22:08.283Z,7.82
2024-03-11T07:24:38.985Z,9.07
2024-03-11T07:27:06.453Z,8.68
2024-03-11T07:29:34.367Z,9.13
2024-03-11T07:32:02.056Z,8.55
2024-03-11T07:34:36.335Z,7.63
2024-03-11T07:37:04.415Z,8.13
2024-03-11T07:39:32.214Z,8.85
2024-03-11T07:41:59.770Z,9.52
2024-03-11T07:44:27.421Z,9.55
2024-03-11T07:46:55.134Z,8.05
2024-03-11T07:49:22.925Z,7.68
2024-03-11T07:51:51.701Z,8.95
2024-03-11T07:54:19.452Z,8.90
2024-03-11T07:56:46.816Z,9.07
2024-03-11T07:59:14.549Z,7.88
2024-03-11T08:01:42.169Z,8.88
2024-03-11T08:04:10.130Z,9.05
2024-03-11T08:06:42.438Z,9.40
2024-03-11T08:09:14.895Z,8.90
2024-03-11T08:11:42.751Z,9.88
2024-03-11T08:14:10.835Z,10.15
2024-03-11T08:16:38.437Z,9.23
2024-03-11T08:19:09.184Z,8.65
2024-03-11T08:21:36.890Z,8.82
2024-03-11T08:24:05.123Z,8.27
2024-03-11T08:26:34.130Z,8.50
2024-03-11T08:29:04.173Z,7.93
2024-03-11T08:31:31.792Z,8.07
2024-03-11T08:33:59.541Z,8.60
2024-03-11T08:36:26.910Z,8.23
2024-03-11T08:38:55.114Z,9.20
2024-03-11T08:41:22.546Z,8.13
2024-03-11T08:43:52.228Z,9.43
2024-03-11T08:46:22.777Z,9.40
2024-03-11T08:48:50.747Z,8.77
2024-03-11T08:51:18.274Z,8.80
2024-03-11T08:53:46.355Z,9.13
2024-03-11T08:56:14.021Z,9.55
2024-03-11T08:58:42.089Z,8.27
2024-03-11T09:01:13.918Z,9.20
2024-03-11T09:06:14.214Z,8.50
2024-03-11T09:08:44.664Z,9.02
2024-03-11T09:11:19.568Z,9.75
2024-03-11T09:13:47.827Z,9.48
2024-03-11T09:16:16.836Z,9.52
2024-03-11T09:18:47.729Z,8.98
2024-03-11T09:21:16.581Z,9.15
2024-03-11T09:23:47.020Z,9.43
2024-03-11T09:26:19.895Z,8.32
2024-03-11T09:28:47.992Z,8.88
2024-03-11T09:31:19.772Z,8.73
2024-03-11T09:36:15.333Z,10.38
2024-03-11T09:38:43.220Z,9.48
2024-03-11T09:41:15.748Z,9.23
2024-03-11T09:43:47.593Z,9.30
2024-03-11T09:46:16.188Z,9.75
2024-03-11T09:48:46.721Z,9.90
2024-03-11T09:51:19.410Z,8.57
2024-03-11T09:53:47.466Z,8.52
2024-03-11T09:56:14.976Z,8.65
2024-03-11T09:58:49.423Z,9.65
2024-03-11T10:01:17.546Z,9.05
2024-03-11T10:03:51.482Z,8.52
2024-03-11T10:06:19.054Z,8.13
2024-03-11T10:08:48.904Z,8.80
2024-03-11T10:11:20.172Z,8.32
2024-03-11T10:13:48.943Z,7.68
2024-03-11T10:16:18.403Z,8.88
2024-03-11T10:18:58.711Z,6.78
2024-03-11T10:21:29.089Z,7.10
2024-03-11T10:23:59.495Z,7.18
2024-03-11T10:26:28.422Z,8.35
2024-03-11T10:28:56.709Z,7.13
2024-03-11T10:31:25.861Z,7.88
2024-03-11T10:33:54.185Z,7.53
2024-03-11T10:36:24.303Z,6.75
2024-03-11T10:38:53.258Z,7.88
2024-03-11T10:41:22.302Z,7.20
2024-03-11T10:43:50.324Z,7.70
2024-03-11T10:46:20.961Z,6.57
2024-03-11T10:48:49.403Z,6.28
2024-03-11T10:51:20.146Z,7.85
2024-03-11T10:54:04.229Z,7.65
2024-03-11T10:56:32.071Z,7.00
2024-03-11T10:59:04.698Z,7.55
2024-03-11T11:01:33.755Z,7.20
2024-03-11T11:04:06.564Z,7.65
2024-03-11T11:06:34.947Z,7.22
2024-03-11T11:09:06.828Z,7.25
2024-03-11T11:11:36.835Z,7.35
2024-03-11T11:14:08.501Z,7.20
2024-03-11T11:16:36.102Z,6.63
2024-03-11T11:19:04.346Z,6.53
2024-03-11T11:21:32.847Z,6.38
2024-03-11T11:24:25.494Z,8.02
2024-03-11T11:26:54.870Z,6.88
2024-03-11T11:29:23.713Z,6.30
2024-03-11T11:32:04.751Z,6.45
2024-03-11T11:34:53.465Z,7.15
2024-03-11T11:37:36.791Z,6.97
2024-03-11T11:40:30.864Z,7.38
2024-03-11T11:43:03.614Z,7.30
2024-03-11T11:45:48.323Z,7.22
2024-03-11T11:48:19.829Z,7.05
2024-03-11T11:50:47.940Z,7.10
2024-03-11T11:53:26.320Z,8.07
2024-03-11T11:55:55.569Z,7.43
2024-03-11T11:58:23.009Z,7.20
2024-03-11T12:00:59.899Z,6.72
2024-03-11T12:03:29.193Z,6.00
2024-03-11T12:06:09.475Z,6.35
2024-03-11T12:08:39.892Z,7.00
2024-03-11T12:11:16.104Z,6.45
2024-03-11T12:13:44.707Z,5.97
2024-03-11T12:16:25.556Z,6.20
2024-03-11T12:19:00.572Z,5.85
2024-03-11T12:21:29.410Z,5.90
2024-03-11T12:23:56.950Z,6.72
2024-03-11T12:26:33.114Z,5.90
2024-03-11T12:29:02.941Z,6.28
2024-03-11T12:31:30.812Z,6.15
2024-03-11T12:33:58.255Z,5.97
2024-03-11T12:36:26.148Z,5.97
2024-03-11T12:38:53.779Z,6.32
2024-03-11T12:41:49.849Z,5.65
2024-03-11T12:44:18.259Z,6.78
2024-03-11T12:46:47.939Z,5.68
2024-03-11T12:49:15.362Z,6.32
2024-03-11T12:51:43.624Z,6.35
2024-03-11T12:54:17.570Z,5.93
2024-03-11T12:56:46.509Z,7.13
2024-03-11T12:59:17.501Z,6.88
2024-03-11T13:01:45.377Z,7.45
2024-03-11T13:04:17.503Z,6.32
2024-03-11T13:06:45.705Z,6.60
2024-03-11T13:09:20.098Z,5.50
2024-03-11T13:11:59.589Z,7.30
2024-03-11T13:14:29.141Z,6.53
2024-03-11T13:16:57.777Z,6.13
2024-03-11T13:19:25.785Z,6.30
2024-03-11T13:21:59.578Z,7.10
2024-03-11T13:24:27.276Z,7.22
2024-03-11T13:26:55.310Z,7.03
2024-03-11T13:29:22.862Z,7.05
2024-03-11T13:31:52.584Z,7.32
2024-03-11T13:34:20.278Z,7.78
2024-03-11T13:36:49.033Z,7.30
2024-03-11T13:39:19.764Z,9.20
2024-03-11T13:41:49.785Z,7.82
2024-03-11T13:44:18.135Z,7.85
2024-03-11T13:46:46.473Z,8.77
2024-03-11T13:49:15.834Z,7.10
2024-03-11T13:51:43.760Z,8.05
2024-03-11T13:54:11.416Z,7.15
2024-03-11T13:56:39.395Z,7.82
2024-03-11T13:59:07.018Z,7.95
2024-03-11T14:01:35.086Z,7.40
2024-03-11T14:04:03.072Z,6.85
2024-03-11T14:06:32.472Z,7.10
2024-03-11T14:09:00.108Z,7.20
2024-03-11T14:11:28.130Z,7.18
2024-03-11T14:13:55.895Z,6.97
2024-03-11T14:16:29.521Z,8.75
2024-03-11T14:18:57.368Z,6.85
2024-03-11T14:21:25.534Z,7.55
2024-03-11T14:23:56.148Z,7.53
2024-03-11T14:26:24.341Z,8.05
2024-03-11T14:28:52.143Z,7.65
2024-03-11T14:31:20.170Z,7.93
2024-03-11T14:33:48.136Z,7.22
2024-03-11T14:36:16.284Z,7.50
2024-03-11T14:38:43.751Z,7.45
2024-03-11T14:41:13.552Z,8.55
2024-03-11T14:43:41.686Z,8.00
2024-03-11T14:46:09.778Z,7.85
2024-03-11T14:48:40.299Z,9.23
2024-03-11T14:51:11.133Z,8.55
2024-03-11T14:53:40.615Z,10.60
2024-03-11T14:56:12.811Z,10.20
2024-03-11T14:58:41.946Z,10.25
2024-03-11T15:01:09.987Z,9.93
2024-03-11T15:03:37.561Z,9.23
2024-03-11T15:06:05.714Z,9.02
2024-03-11T15:08:33.011Z,9.68
2024-03-11T15:11:01.094Z,9.85
2024-03-11T15:13:30.337Z,10.93
2024-03-11T15:15:58.581Z,11.77
2024-03-11T15:18:26.080Z,13.48
2024-03-11T15:20:54.448Z,14.10
2024-03-11T15:23:25.264Z,17.02
2024-03-11T15:25:57.865Z,10.15
2024-03-11T15:28:25.832Z,10.13
2024-03-11T15:30:59.615Z,10.85
2024-03-11T15:33:27.796Z,10.52
2024-03-11T15:35:55.893Z,10.98
2024-03-11T15:38:23.332Z,10.77
2024-03-11T15:40:52.127Z,10.07
2024-03-11T15:43:22.857Z,11.40
2024-03-11T15:45:51.420Z,12.55
2024-03-11T15:48:20.494Z,13.38
2024-03-11T15:50:49.555Z,13.93
2024-03-11T15:53:17.259Z,13.63
2024-03-11T15:55:45.289Z,15.20
2024-03-11T15:58:12.889Z,17.75
2024-03-11T16:00:41.038Z,15.30
2024-03-11T16:03:10.279Z,16.75
2024-03-11T16:05:40.145Z,18.15
2024-03-11T16:08:08.501Z,12.70
2024-03-11T16:10:36.504Z,11.68
2024-03-11T16:13:04.651Z,9.82
2024-03-11T16:15:32.569Z,10.10
2024-03-11T16:18:00.209Z,9.95
2024-03-11T16:20:32.502Z,9.73
2024-03-11T16:23:03.625Z,10.70
2024-03-11T16:25:31.613Z,9.88
2024-03-11T16:27:59.134Z,10.57
2024-03-11T16:30:27.399Z,10.02
2024-03-11T16:32:55.953Z,10.77
2024-03-11T16:35:27.304Z,11.48
2024-03-11T16:37:55.755Z,10.55
2024-03-11T16:40:25.604Z,10.25
2024-03-11T16:42:57.320Z,10.70
2024-03-11T16:45:26.324Z,10.65
2024-03-11T16:47:56.864Z,10.35
2024-03-11T16:50:24.944Z,10.63
2024-03-11T16:53:00.749Z,11.43
2024-03-11T16:55:30.151Z,9.85
2024-03-11T16:57:58.188Z,10.30
2024-03-11T17:00:26.657Z,10.93
2024-03-11T17:02:54.862Z,10.73
2024-03-11T17:05:24.990Z,10.27
2024-03-11T17:07:56.225Z,11.10
2024-03-11T17:10:32.844Z,11.23
2024-03-11T17:13:08.004Z,11.52
2024-03-11T17:15:39.357Z,11.45
2024-03-11T17:18:06.922Z,11.90
2024-03-11T17:20:39.040Z,11.93
2024-03-11T17:23:11.921Z,12.40
2024-03-11T17:25:41.151Z,11.95
2024-03-11T17:28:11.416Z,12.30
2024-03-11T17:30:42.276Z,12.30
2024-03-11T17:33:15.402Z,12.60
2024-03-11T17:35:47.690Z,12.55
2024-03-11T17:38:15.903Z,12.68
2024-03-11T17:40:47.200Z,11.63
2024-03-11T17:43:15.399Z,13.63
2024-03-11T17:45:44.439Z,12.75
2024-03-11T17:48:13.175Z,12.77
2024-03-11T17:50:46.173Z,12.90
2024-03-11T17:53:16.697Z,14.63
2024-03-11T17:55:46.457Z,14.15
2024-03-11T17:58:17.415Z,14.73
2024-03-11T18:00:50.458Z,13.25
2024-03-11T18:03:18.712Z,15.38
2024-03-11T18:05:46.728Z,16.30
2024-03-11T18:08:14.826Z,15.35
2024-03-11T18:10:42.919Z,15.25
2024-03-11T18:13:13.689Z,16.75
2024-03-11T18:15:42.240Z,16.33
2024-03-11T18:18:10.092Z,15.60
2024-03-11T18:20:38.171Z,15.43
2024-03-11T18:23:08.086Z,15.85
2024-03-11T18:25:36.208Z,16.02
2024-03-11T18:28:04.108Z,16.25
2024-03-11T18:30:33.671Z,18.35
2024-03-11T18:33:01.091Z,19.60
2024-03-11T18:35:29.991Z,17.90
2024-03-11T18:37:57.950Z,17.38
2024-03-11T18:40:26.339Z,16.15
2024-03-11T18:42:55.195Z,16.73
2024-03-11T18:45:23.486Z,18.05
2024-03-11T18:47:52.289Z,16.85
2024-03-11T18:50:23.500Z,16.98
2024-03-11T18:52:59.802Z,17.85
2024-03-11T18:55:30.010Z,16.27
2024-03-11T18:57:58.216Z,17.98
2024-03-11T19:00:26.636Z,17.55
2024-03-11T19:02:59.372Z,15.65
2024-03-11T19:05:27.920Z,14.43
2024-03-11T19:07:58.136Z,15.43
2024-03-11T19:10:26.421Z,15.68
2024-03-11T19:12:55.271Z,15.63
2024-03-11T19:15:27.486Z,17.80
2024-03-11T19:17:57.308Z,18.27
2024-03-11T19:20:33.190Z,19.02
2024-03-11T19:23:04.097Z,18.80
2024-03-11T19:25:33.920Z,18.10
2024-03-11T19:28:01.813Z,18.10
2024-03-11T19:30:34.648Z,16.42
2024-03-11T19:33:04.300Z,16.27
2024-03-11T19:35:33.727Z,18.92
2024-03-11T19:38:34.740Z,18.23
2024-03-11T19:41:10.269Z,18.27
2024-03-11T19:44:23.653Z,18.58
2024-03-11T19:47:39.871Z,18.08
2024-03-11T19:53:29.342Z,17.85
2024-03-11T19:56:47.437Z,18.58
2024-03-11T19:59:57.696Z,16.20
2024-03-11T20:02:57.878Z,17.67
2024-03-11T20:06:02.771Z,18.10
2024-03-11T20:09:00.529Z,17.75
2024-03-11T20:12:10.853Z,17.98
2024-03-11T20:14:45.083Z,16.45
2024-03-11T20:17:32.078Z,18.80
2024-03-11T20:20:33.523Z,17.58
2024-03-11T20:23:54.734Z,17.88
2024-03-11T20:26:33.902Z,18.13
2024-03-11T20:29:13.079Z,18.38
2024-03-11T20:31:49.854Z,18.65
2024-03-11T20:34:18.085Z,15.68
2024-03-11T20:36:47.314Z,17.77
2024-03-11T20:39:15.424Z,17.75
2024-03-11T20:41:43.093Z,19.42
2024-03-11T20:44:15.571Z,17.33
2024-03-11T20:46:43.211Z,18.02
2024-03-11T20:49:11.040Z,20.17
2024-03-11T20:51:40.872Z,18.55
2024-03-11T20:54:10.225Z,18.63
2024-03-11T20:56:38.390Z,18.45
2024-03-11T20:59:06.483Z,18.55
2024-03-11T21:01:34.116Z,19.25
2024-03-11T21:04:01.914Z,19.55
2024-03-11T21:06:32.580Z,20.35
2024-03-11T21:09:00.413Z,20.17
2024-03-11T21:11:29.391Z,18.75
2024-03-11T21:13:57.331Z,19.27
2024-03-11T21:16:54.354Z,17.75
2024-03-11T21:19:22.608Z,18.23
2024-03-11T21:21:51.645Z,18.73
2024-03-11T21:24:22.754Z,19.95
2024-03-11T21:26:53.498Z,19.25
2024-03-11T21:29:21.212Z,18.58
2024-03-11T21:31:48.973Z,19.42
2024-03-11T21:34:17.325Z,18.70
2024-03-11T21:36:45.234Z,19.83
2024-03-11T21:39:14.415Z,20.20
2024-03-11T21:41:44.486Z,19.38
2024-03-11T21:44:14.541Z,19.88
2024-03-11T21:46:42.915Z,22.23
2024-03-11T21:49:12.728Z,22.20
2024-03-11T21:51:41.145Z,20.63
2024-03-11T21:54:09.740Z,19.17
2024-03-11T21:56:37.447Z,21.08
2024-03-11T21:59:05.388Z,20.77
2024-03-11T22:01:34.336Z,19.00
2024-03-11T22:04:05.139Z,19.25
2024-03-11T22:06:33.011Z,17.73
2024-03-11T22:09:01.555Z,19.30
2024-03-11T22:11:29.281Z,18.33
2024-03-11T22:13:57.101Z,17.98
2024-03-11T22:16:26.911Z,18.45
2024-03-11T22:18:57.601Z,17.17
2024-03-11T22:21:28.029Z,17.92
2024-03-11T22:23:58.201Z,19.58
2024-03-11T22:26:28.008Z,20.88
2024-03-11T22:28:58.137Z,19.75
2024-03-11T22:31:29.006Z,21.48
2024-03-11T22:34:01.299Z,21.15
2024-03-11T22:36:29.191Z,21.45
2024-03-11T22:39:00.165Z,20.88
2024-03-11T22:41:28.148Z,20.55
2024-03-11T22:43:56.524Z,20.85
2024-03-11T22:46:25.932Z,21.63
2024-03-11T22:49:01.457Z,21.80
2024-03-11T22:51:35.262Z,20.25
2024-03-11T22:54:06.385Z,21.38
2024-03-11T22:56:33.952Z,18.23
2024-03-11T22:59:02.250Z,19.88
2024-03-11T23:01:32.808Z,19.52
2024-03-11T23:04:00.969Z,21.15
2024-03-11T23:06:28.576Z,19.45
2024-03-11T23:08:57.965Z,19.60
2024-03-11T23:11:25.410Z,19.95
2024-03-11T23:13:53.359Z,21.17
2024-03-11T23:16:20.847Z,19.52
2024-03-11T23:18:49.104Z,19.38
2024-03-11T23:21:16.721Z,19.98
2024-03-11T23:23:44.994Z,20.70
2024-03-11T23:26:16.738Z,19.20
2024-03-11T23:31:12.034Z,17.08
2024-03-11T23:33:40.005Z,18.88
2024-03-11T23:36:08.079Z,19.45
2024-03-11T23:38:35.862Z,18.52
2024-03-11T23:41:03.383Z,17.98
2024-03-11T23:43:35.966Z,19.08
2024-03-11T23:46:04.033Z,18.52
2024-03-11T23:48:31.777Z,19.55
2024-03-11T23:50:59.302Z,19.33
2024-03-11T23:53:27.298Z,18.23
2024-03-11T23:55:56.006Z,20.60
2024-03-11T23:58:23.693Z,20.75
